sensor_id;sensor_type;location;lat;lon;timestamp;P1;durP1;ratioP1;P2;durP2;ratioP2
74543;SDS011;63016;55.030;38.710;2023-03-14T00:00:46;5.13;;;1.30;;
74543;SDS011;63016;55.030;38.710;2023-03-14T00:03:12;3.90;;;1.17;;
74543;SDS011;63016;55.030;38.710;2023-03-14T00:05:37;5.30;;;1.60;;
74543;SDS011;63016;55.030;38.710;2023-03-14T00:08:03;3.78;;;1.30;;
74543;SDS011;63016;55.030;38.710;2023-03-14T00:10:28;5.43;;;1.50;;
74543;SDS011;63016;55.030;38.710;2023-03-14T00:12:54;4.03;;;1.40;;
74543;SDS011;63016;55.030;38.710;2023-03-14T00:15:19;2.55;;;1.23;;
74543;SDS011;63016;55.030;38.710;2023-03-14T00:17:45;3.78;;;1.40;;
74543;SDS011;63016;55.030;38.710;2023-03-14T00:20:11;2.40;;;1.00;;
74543;SDS011;63016;55.030;38.710;2023-03-14T00:22:37;2.38;;;1.40;;
74543;SDS011;63016;55.030;38.710;2023-03-14T00:25:04;3.20;;;1.45;;
74543;SDS011;63016;55.030;38.710;2023-03-14T00:27:31;1.90;;;1.02;;
74543;SDS011;63016;55.030;38.710;2023-03-14T00:29:57;3.72;;;1.40;;
74543;SDS011;63016;55.030;38.710;2023-03-14T00:32:22;2.35;;;1.30;;
74543;SDS011;63016;55.030;38.710;2023-03-14T00:34:48;5.78;;;1.70;;
74543;SDS011;63016;55.030;38.710;2023-03-14T00:37:14;2.28;;;1.23;;
74543;SDS011;63016;55.030;38.710;2023-03-14T00:39:39;3.45;;;1.40;;
74543;SDS011;63016;55.030;38.710;2023-03-14T00:42:05;3.95;;;1.20;;
74543;SDS011;63016;55.030;38.710;2023-03-14T00:44:30;2.92;;;1.50;;
74543;SDS011;63016;55.030;38.710;2023-03-14T00:46:57;1.48;;;1.02;;
74543;SDS011;63016;55.030;38.710;2023-03-14T00:49:23;4.30;;;1.35;;
74543;SDS011;63016;55.030;38.710;2023-03-14T00:51:49;4.55;;;1.30;;
74543;SDS011;63016;55.030;38.710;2023-03-14T00:54:14;2.75;;;1.20;;
74543;SDS011;63016;55.030;38.710;2023-03-14T00:56:40;4.07;;;1.80;;
74543;SDS011;63016;55.030;38.710;2023-03-14T00:59:05;2.20;;;1.10;;
74543;SDS011;63016;55.030;38.710;2023-03-14T01:01:31;3.85;;;1.15;;
74543;SDS011;63016;55.030;38.710;2023-03-14T01:03:56;5.13;;;1.45;;
74543;SDS011;63016;55.030;38.710;2023-03-14T01:06:26;1.70;;;1.10;;
74543;SDS011;63016;55.030;38.710;2023-03-14T01:08:53;4.65;;;1.30;;
74543;SDS011;63016;55.030;38.710;2023-03-14T01:11:23;2.88;;;1.20;;
74543;SDS011;63016;55.030;38.710;2023-03-14T01:16:18;4.50;;;1.48;;
74543;SDS011;63016;55.030;38.710;2023-03-14T01:18:46;3.53;;;1.33;;
74543;SDS011;63016;55.030;38.710;2023-03-14T01:21:22;4.97;;;1.48;;
74543;SDS011;63016;55.030;38.710;2023-03-14T01:23:50;4.47;;;1.48;;
74543;SDS011;63016;55.030;38.710;2023-03-14T01:26:18;3.13;;;1.27;;
74543;SDS011;63016;55.030;38.710;2023-03-14T01:28:46;3.33;;;1.70;;
74543;SDS011;63016;55.030;38.710;2023-03-14T01:31:12;4.13;;;1.33;;
74543;SDS011;63016;55.030;38.710;2023-03-14T01:33:39;7.82;;;1.50;;
74543;SDS011;63016;55.030;38.710;2023-03-14T01:36:06;4.47;;;1.38;;
74543;SDS011;63016;55.030;38.710;2023-03-14T01:38:33;4.20;;;1.65;;
74543;SDS011;63016;55.030;38.710;2023-03-14T01:41:00;8.18;;;2.00;;
74543;SDS011;63016;55.030;38.710;2023-03-14T01:43:26;4.93;;;2.20;;
74543;SDS011;63016;55.030;38.710;2023-03-14T01:56:38;5.55;;;1.95;;
74543;SDS011;63016;55.030;38.710;2023-03-14T01:59:06;4.28;;;2.00;;
74543;SDS011;63016;55.030;38.710;2023-03-14T02:01:34;6.00;;;2.08;;
74543;SDS011;63016;55.030;38.710;2023-03-14T02:04:01;4.57;;;1.98;;
74543;SDS011;63016;55.030;38.710;2023-03-14T02:06:32;5.15;;;1.90;;
74543;SDS011;63016;55.030;38.710;2023-03-14T02:09:05;4.28;;;1.75;;
74543;SDS011;63016;55.030;38.710;2023-03-14T02:11:31;3.35;;;1.60;;
74543;SDS011;63016;55.030;38.710;2023-03-14T02:13:57;5.80;;;1.95;;
74543;SDS011;63016;55.030;38.710;2023-03-14T02:16:24;4.93;;;1.77;;
74543;SDS011;63016;55.030;38.710;2023-03-14T02:18:49;3.25;;;1.70;;
74543;SDS011;63016;55.030;38.710;2023-03-14T02:29:52;6.63;;;1.50;;
74543;SDS011;63016;55.030;38.710;2023-03-14T02:32:21;3.80;;;1.42;;
74543;SDS011;63016;55.030;38.710;2023-03-14T02:34:58;2.22;;;1.30;;
74543;SDS011;63016;55.030;38.710;2023-03-14T02:37:27;3.20;;;1.35;;
74543;SDS011;63016;55.030;38.710;2023-03-14T02:40:12;3.83;;;1.60;;
74543;SDS011;63016;55.030;38.710;2023-03-14T02:42:38;1.88;;;1.20;;
74543;SDS011;63016;55.030;38.710;2023-03-14T02:47:36;6.05;;;1.50;;
74543;SDS011;63016;55.030;38.710;2023-03-14T02:50:13;4.80;;;1.33;;
74543;SDS011;63016;55.030;38.710;2023-03-14T02:52:43;3.67;;;1.25;;
74543;SDS011;63016;55.030;38.710;2023-03-14T02:55:08;4.10;;;1.20;;
74543;SDS011;63016;55.030;38.710;2023-03-14T02:57:34;5.60;;;1.33;;
74543;SDS011;63016;55.030;38.710;2023-03-14T03:00:00;2.40;;;1.40;;
74543;SDS011;63016;55.030;38.710;2023-03-14T03:02:29;3.70;;;1.35;;
74543;SDS011;63016;55.030;38.710;2023-03-14T03:04:55;3.50;;;1.35;;
74543;SDS011;63016;55.030;38.710;2023-03-14T03:07:20;2.72;;;1.35;;
74543;SDS011;63016;55.030;38.710;2023-03-14T03:09:46;6.57;;;1.35;;
74543;SDS011;63016;55.030;38.710;2023-03-14T03:12:11;4.50;;;1.15;;
74543;SDS011;63016;55.030;38.710;2023-03-14T03:14:37;3.17;;;1.50;;
74543;SDS011;63016;55.030;38.710;2023-03-14T03:17:06;4.03;;;1.35;;
74543;SDS011;63016;55.030;38.710;2023-03-14T03:19:32;3.50;;;1.58;;
74543;SDS011;63016;55.030;38.710;2023-03-14T03:21:58;3.38;;;1.50;;
74543;SDS011;63016;55.030;38.710;2023-03-14T03:24:24;3.60;;;1.48;;
74543;SDS011;63016;55.030;38.710;2023-03-14T03:26:51;5.40;;;1.55;;
74543;SDS011;63016;55.030;38.710;2023-03-14T03:29:17;4.20;;;1.48;;
74543;SDS011;63016;55.030;38.710;2023-03-14T03:31:42;5.85;;;1.50;;
74543;SDS011;63016;55.030;38.710;2023-03-14T03:34:10;6.40;;;1.65;;
74543;SDS011;63016;55.030;38.710;2023-03-14T03:36:36;4.68;;;1.27;;
74543;SDS011;63016;55.030;38.710;2023-03-14T03:39:02;2.97;;;1.30;;
74543;SDS011;63016;55.030;38.710;2023-03-14T03:41:28;3.83;;;1.35;;
74543;SDS011;63016;55.030;38.710;2023-03-14T03:43:55;3.95;;;1.50;;
74543;SDS011;63016;55.030;38.710;2023-03-14T03:46:21;7.32;;;1.52;;
74543;SDS011;63016;55.030;38.710;2023-03-14T03:48:46;4.25;;;1.35;;
74543;SDS011;63016;55.030;38.710;2023-03-14T03:51:15;2.95;;;1.27;;
74543;SDS011;63016;55.030;38.710;2023-03-14T03:53:41;3.55;;;1.35;;
74543;SDS011;63016;55.030;38.710;2023-03-14T03:56:08;3.63;;;1.52;;
74543;SDS011;63016;55.030;38.710;2023-03-14T03:58:34;3.70;;;1.30;;
74543;SDS011;63016;55.030;38.710;2023-03-14T04:01:00;3.83;;;1.67;;
74543;SDS011;63016;55.030;38.710;2023-03-14T04:03:25;3.20;;;1.13;;
74543;SDS011;63016;55.030;38.710;2023-03-14T04:05:58;5.53;;;1.60;;
74543;SDS011;63016;55.030;38.710;2023-03-14T04:08:27;3.40;;;1.30;;
74543;SDS011;63016;55.030;38.710;2023-03-14T04:10:55;3.38;;;1.35;;
74543;SDS011;63016;55.030;38.710;2023-03-14T04:13:24;4.20;;;1.23;;
74543;SDS011;63016;55.030;38.710;2023-03-14T04:15:50;3.05;;;1.15;;
74543;SDS011;63016;55.030;38.710;2023-03-14T04:18:16;3.83;;;1.17;;
74543;SDS011;63016;55.030;38.710;2023-03-14T04:20:42;3.25;;;1.40;;
74543;SDS011;63016;55.030;38.710;2023-03-14T04:23:08;5.82;;;1.40;;
74543;SDS011;63016;55.030;38.710;2023-03-14T04:25:34;2.28;;;1.25;;
74543;SDS011;63016;55.030;38.710;2023-03-14T04:27:59;4.10;;;1.77;;
74543;SDS011;63016;55.030;38.710;2023-03-14T04:30:25;5.70;;;1.30;;
74543;SDS011;63016;55.030;38.710;2023-03-14T04:32:51;3.58;;;1.30;;
74543;SDS011;63016;55.030;38.710;2023-03-14T04:35:16;2.33;;;1.27;;
74543;SDS011;63016;55.030;38.710;2023-03-14T04:37:42;3.53;;;1.20;;
74543;SDS011;63016;55.030;38.710;2023-03-14T04:40:08;5.68;;;1.20;;
74543;SDS011;63016;55.030;38.710;2023-03-14T04:42:35;1.20;;;0.98;;
74543;SDS011;63016;55.030;38.710;2023-03-14T04:45:01;3.45;;;1.38;;
74543;SDS011;63016;55.030;38.710;2023-03-14T04:47:26;3.00;;;1.20;;
74543;SDS011;63016;55.030;38.710;2023-03-14T04:49:52;3.42;;;1.42;;
74543;SDS011;63016;55.030;38.710;2023-03-14T04:52:18;2.83;;;1.10;;
74543;SDS011;63016;55.030;38.710;2023-03-14T04:54:43;3.25;;;1.10;;
74543;SDS011;63016;55.030;38.710;2023-03-14T04:57:09;2.05;;;1.00;;
74543;SDS011;63016;55.030;38.710;2023-03-14T04:59:34;3.63;;;1.30;;
74543;SDS011;63016;55.030;38.710;2023-03-14T05:01:59;3.80;;;1.38;;
74543;SDS011;63016;55.030;38.710;2023-03-14T05:04:25;3.55;;;1.30;;
74543;SDS011;63016;55.030;38.710;2023-03-14T05:06:51;2.38;;;1.20;;
74543;SDS011;63016;55.030;38.710;2023-03-14T05:09:17;4.60;;;1.30;;
74543;SDS011;63016;55.030;38.710;2023-03-14T05:11:42;3.00;;;1.27;;
74543;SDS011;63016;55.030;38.710;2023-03-14T05:14:08;2.42;;;1.23;;
74543;SDS011;63016;55.030;38.710;2023-03-14T05:16:33;2.17;;;1.02;;
74543;SDS011;63016;55.030;38.710;2023-03-14T05:18:59;4.13;;;1.40;;
74543;SDS011;63016;55.030;38.710;2023-03-14T05:21:26;4.13;;;1.35;;
74543;SDS011;63016;55.030;38.710;2023-03-14T05:23:52;2.88;;;1.05;;
74543;SDS011;63016;55.030;38.710;2023-03-14T05:26:17;2.85;;;1.33;;
74543;SDS011;63016;55.030;38.710;2023-03-14T05:28:43;4.22;;;1.35;;
74543;SDS011;63016;55.030;38.710;2023-03-14T05:31:09;2.88;;;1.27;;
74543;SDS011;63016;55.030;38.710;2023-03-14T05:33:35;4.07;;;1.48;;
74543;SDS011;63016;55.030;38.710;2023-03-14T05:36:00;3.95;;;1.42;;
74543;SDS011;63016;55.030;38.710;2023-03-14T05:38:26;3.35;;;1.23;;
74543;SDS011;63016;55.030;38.710;2023-03-14T05:40:51;3.35;;;1.20;;
74543;SDS011;63016;55.030;38.710;2023-03-14T05:43:17;4.13;;;1.40;;
74543;SDS011;63016;55.030;38.710;2023-03-14T05:45:42;3.78;;;1.45;;
74543;SDS011;63016;55.030;38.710;2023-03-14T05:48:08;3.00;;;1.80;;
74543;SDS011;63016;55.030;38.710;2023-03-14T05:50:34;2.45;;;1.50;;
74543;SDS011;63016;55.030;38.710;2023-03-14T05:52:59;3.08;;;1.52;;
74543;SDS011;63016;55.030;38.710;2023-03-14T05:55:25;4.05;;;1.73;;
74543;SDS011;63016;55.030;38.710;2023-03-14T05:57:52;4.10;;;1.63;;
74543;SDS011;63016;55.030;38.710;2023-03-14T06:00:18;4.18;;;1.30;;
74543;SDS011;63016;55.030;38.710;2023-03-14T06:02:44;4.20;;;1.42;;
74543;SDS011;63016;55.030;38.710;2023-03-14T06:05:10;3.25;;;1.40;;
74543;SDS011;63016;55.030;38.710;2023-03-14T06:07:35;2.92;;;1.45;;
74543;SDS011;63016;55.030;38.710;2023-03-14T06:10:01;4.78;;;1.85;;
74543;SDS011;63016;55.030;38.710;2023-03-14T06:12:27;4.90;;;1.73;;
74543;SDS011;63016;55.030;38.710;2023-03-14T06:14:53;6.28;;;1.98;;
74543;SDS011;63016;55.030;38.710;2023-03-14T06:17:19;4.43;;;1.63;;
74543;SDS011;63016;55.030;38.710;2023-03-14T06:19:44;3.95;;;1.48;;
74543;SDS011;63016;55.030;38.710;2023-03-14T06:22:10;3.38;;;1.75;;
74543;SDS011;63016;55.030;38.710;2023-03-14T06:24:35;2.80;;;1.48;;
74543;SDS011;63016;55.030;38.710;2023-03-14T06:27:01;3.60;;;1.60;;
74543;SDS011;63016;55.030;38.710;2023-03-14T06:29:28;3.53;;;1.63;;
74543;SDS011;63016;55.030;38.710;2023-03-14T06:31:54;2.95;;;1.60;;
74543;SDS011;63016;55.030;38.710;2023-03-14T06:34:20;4.07;;;2.00;;
74543;SDS011;63016;55.030;38.710;2023-03-14T06:36:45;3.72;;;1.95;;
74543;SDS011;63016;55.030;38.710;2023-03-14T06:39:11;2.58;;;1.42;;
74543;SDS011;63016;55.030;38.710;2023-03-14T06:41:36;5.35;;;2.00;;
74543;SDS011;63016;55.030;38.710;2023-03-14T06:44:02;5.60;;;2.00;;
74543;SDS011;63016;55.030;38.710;2023-03-14T06:46:28;2.90;;;1.70;;
74543;SDS011;63016;55.030;38.710;2023-03-14T06:48:53;5.82;;;2.10;;
74543;SDS011;63016;55.030;38.710;2023-03-14T06:51:19;4.50;;;1.77;;
74543;SDS011;63016;55.030;38.710;2023-03-14T06:53:44;6.00;;;1.92;;
74543;SDS011;63016;55.030;38.710;2023-03-14T06:56:10;4.35;;;1.80;;
74543;SDS011;63016;55.030;38.710;2023-03-14T06:58:36;3.75;;;1.90;;
74543;SDS011;63016;55.030;38.710;2023-03-14T07:01:01;4.10;;;1.60;;
74543;SDS011;63016;55.030;38.710;2023-03-14T07:03:27;3.20;;;1.60;;
74543;SDS011;63016;55.030;38.710;2023-03-14T07:05:53;2.80;;;1.60;;
74543;SDS011;63016;55.030;38.710;2023-03-14T07:08:19;3.92;;;1.90;;
74543;SDS011;63016;55.030;38.710;2023-03-14T07:10:44;4.00;;;2.00;;
74543;SDS011;63016;55.030;38.710;2023-03-14T07:13:10;4.60;;;2.08;;
74543;SDS011;63016;55.030;38.710;2023-03-14T07:15:35;4.50;;;1.73;;
74543;SDS011;63016;55.030;38.710;2023-03-14T07:18:01;5.50;;;2.13;;
74543;SDS011;63016;55.030;38.710;2023-03-14T07:20:26;5.55;;;2.10;;
74543;SDS011;63016;55.030;38.710;2023-03-14T07:22:53;3.95;;;1.80;;
74543;SDS011;63016;55.030;38.710;2023-03-14T07:25:19;5.63;;;2.20;;
74543;SDS011;63016;55.030;38.710;2023-03-14T07:27:45;5.13;;;1.92;;
74543;SDS011;63016;55.030;38.710;2023-03-14T07:30:13;3.60;;;1.83;;
74543;SDS011;63016;55.030;38.710;2023-03-14T07:32:39;3.05;;;1.77;;
74543;SDS011;63016;55.030;38.710;2023-03-14T07:35:04;6.45;;;2.78;;
74543;SDS011;63016;55.030;38.710;2023-03-14T07:37:31;4.18;;;2.10;;
74543;SDS011;63016;55.030;38.710;2023-03-14T07:39:56;4.95;;;2.42;;
74543;SDS011;63016;55.030;38.710;2023-03-14T07:42:22;3.40;;;1.80;;
74543;SDS011;63016;55.030;38.710;2023-03-14T07:44:47;6.03;;;2.30;;
74543;SDS011;63016;55.030;38.710;2023-03-14T07:47:13;5.15;;;2.17;;
74543;SDS011;63016;55.030;38.710;2023-03-14T07:49:38;4.55;;;1.95;;
74543;SDS011;63016;55.030;38.710;2023-03-14T07:52:04;5.43;;;1.95;;
74543;SDS011;63016;55.030;38.710;2023-03-14T07:54:29;4.25;;;2.10;;
74543;SDS011;63016;55.030;38.710;2023-03-14T07:56:55;8.05;;;2.13;;
74543;SDS011;63016;55.030;38.710;2023-03-14T07:59:20;4.95;;;1.80;;
74543;SDS011;63016;55.030;38.710;2023-03-14T08:01:46;3.88;;;1.90;;
74543;SDS011;63016;55.030;38.710;2023-03-14T08:04:12;7.40;;;2.00;;
74543;SDS011;63016;55.030;38.710;2023-03-14T08:06:37;4.07;;;1.90;;
74543;SDS011;63016;55.030;38.710;2023-03-14T08:09:03;5.10;;;2.00;;
74543;SDS011;63016;55.030;38.710;2023-03-14T08:11:29;4.65;;;1.77;;
74543;SDS011;63016;55.030;38.710;2023-03-14T08:13:55;3.30;;;1.88;;
74543;SDS011;63016;55.030;38.710;2023-03-14T08:16:20;4.32;;;2.17;;
74543;SDS011;63016;55.030;38.710;2023-03-14T08:18:46;4.85;;;2.17;;
74543;SDS011;63016;55.030;38.710;2023-03-14T08:21:12;4.28;;;2.13;;
74543;SDS011;63016;55.030;38.710;2023-03-14T08:23:39;6.50;;;1.90;;
74543;SDS011;63016;55.030;38.710;2023-03-14T08:26:04;5.95;;;1.90;;
74543;SDS011;63016;55.030;38.710;2023-03-14T08:28:30;5.70;;;2.03;;
74543;SDS011;63016;55.030;38.710;2023-03-14T08:30:58;6.35;;;2.17;;
74543;SDS011;63016;55.030;38.710;2023-03-14T08:33:24;3.22;;;1.77;;
74543;SDS011;63016;55.030;38.710;2023-03-14T08:35:52;6.38;;;1.88;;
74543;SDS011;63016;55.030;38.710;2023-03-14T08:38:18;3.88;;;1.70;;
74543;SDS011;63016;55.030;38.710;2023-03-14T08:40:44;3.03;;;1.75;;
74543;SDS011;63016;55.030;38.710;2023-03-14T08:43:09;5.80;;;1.95;;
74543;SDS011;63016;55.030;38.710;2023-03-14T08:45:35;5.22;;;2.08;;
74543;SDS011;63016;55.030;38.710;2023-03-14T08:48:00;4.20;;;1.90;;
74543;SDS011;63016;55.030;38.710;2023-03-14T08:50:26;6.35;;;1.92;;
74543;SDS011;63016;55.030;38.710;2023-03-14T08:52:51;4.18;;;1.80;;
74543;SDS011;63016;55.030;38.710;2023-03-14T08:55:17;3.40;;;2.30;;
74543;SDS011;63016;55.030;38.710;2023-03-14T08:57:43;4.95;;;2.03;;
74543;SDS011;63016;55.030;38.710;2023-03-14T09:00:08;5.32;;;2.00;;
74543;SDS011;63016;55.030;38.710;2023-03-14T09:02:43;4.88;;;2.03;;
74543;SDS011;63016;55.030;38.710;2023-03-14T09:05:09;5.32;;;2.30;;
74543;SDS011;63016;55.030;38.710;2023-03-14T09:07:35;4.53;;;2.03;;
74543;SDS011;63016;55.030;38.710;2023-03-14T09:10:01;3.47;;;1.85;;
74543;SDS011;63016;55.030;38.710;2023-03-14T09:12:27;5.35;;;2.13;;
74543;SDS011;63016;55.030;38.710;2023-03-14T09:14:53;4.22;;;2.15;;
74543;SDS011;63016;55.030;38.710;2023-03-14T09:17:18;4.45;;;2.03;;
74543;SDS011;63016;55.030;38.710;2023-03-14T09:19:44;3.33;;;2.15;;
74543;SDS011;63016;55.030;38.710;2023-03-14T09:22:09;5.63;;;2.22;;
74543;SDS011;63016;55.030;38.710;2023-03-14T09:24:35;6.65;;;2.58;;
74543;SDS011;63016;55.030;38.710;2023-03-14T09:27:00;8.45;;;2.42;;
74543;SDS011;63016;55.030;38.710;2023-03-14T09:29:26;3.50;;;2.00;;
74543;SDS011;63016;55.030;38.710;2023-03-14T09:31:51;5.15;;;2.10;;
74543;SDS011;63016;55.030;38.710;2023-03-14T09:34:17;4.82;;;2.38;;
74543;SDS011;63016;55.030;38.710;2023-03-14T09:36:43;3.05;;;1.98;;
74543;SDS011;63016;55.030;38.710;2023-03-14T09:39:09;3.97;;;2.38;;
74543;SDS011;63016;55.030;38.710;2023-03-14T09:41:37;4.10;;;2.58;;
74543;SDS011;63016;55.030;38.710;2023-03-14T09:46:34;4.38;;;2.50;;
74543;SDS011;63016;55.030;38.710;2023-03-14T09:49:02;4.78;;;2.35;;
74543;SDS011;63016;55.030;38.710;2023-03-14T09:51:28;4.07;;;2.30;;
74543;SDS011;63016;55.030;38.710;2023-03-14T09:53:54;3.88;;;2.15;;
74543;SDS011;63016;55.030;38.710;2023-03-14T09:56:26;6.03;;;2.78;;
74543;SDS011;63016;55.030;38.710;2023-03-14T09:58:55;4.50;;;2.42;;
74543;SDS011;63016;55.030;38.710;2023-03-14T10:01:27;5.03;;;3.10;;
74543;SDS011;63016;55.030;38.710;2023-03-14T10:03:55;5.13;;;2.92;;
74543;SDS011;63016;55.030;38.710;2023-03-14T10:06:29;5.57;;;3.00;;
74543;SDS011;63016;55.030;38.710;2023-03-14T10:08:56;6.20;;;2.88;;
74543;SDS011;63016;55.030;38.710;2023-03-14T10:11:22;6.88;;;3.05;;
74543;SDS011;63016;55.030;38.710;2023-03-14T10:13:50;5.05;;;2.78;;
74543;SDS011;63016;55.030;38.710;2023-03-14T10:16:30;5.75;;;2.90;;
74543;SDS011;63016;55.030;38.710;2023-03-14T10:19:05;4.72;;;2.33;;
74543;SDS011;63016;55.030;38.710;2023-03-14T10:21:38;5.25;;;2.85;;
74543;SDS011;63016;55.030;38.710;2023-03-14T10:24:18;5.70;;;3.10;;
74543;SDS011;63016;55.030;38.710;2023-03-14T10:26:55;6.45;;;2.75;;
74543;SDS011;63016;55.030;38.710;2023-03-14T10:29:29;4.65;;;3.10;;
74543;SDS011;63016;55.030;38.710;2023-03-14T10:32:00;4.90;;;2.85;;
74543;SDS011;63016;55.030;38.710;2023-03-14T10:34:35;5.65;;;3.17;;
74543;SDS011;63016;55.030;38.710;2023-03-14T10:37:07;7.07;;;3.10;;
74543;SDS011;63016;55.030;38.710;2023-03-14T10:44:48;3.92;;;2.60;;
74543;SDS011;63016;55.030;38.710;2023-03-14T10:47:20;6.85;;;2.50;;
74543;SDS011;63016;55.030;38.710;2023-03-14T10:49:49;5.95;;;2.90;;
74543;SDS011;63016;55.030;38.710;2023-03-14T10:52:25;6.88;;;3.38;;
74543;SDS011;63016;55.030;38.710;2023-03-14T10:54:56;6.55;;;3.50;;
74543;SDS011;63016;55.030;38.710;2023-03-14T10:57:26;5.55;;;2.60;;
74543;SDS011;63016;55.030;38.710;2023-03-14T10:59:53;6.38;;;3.00;;
74543;SDS011;63016;55.030;38.710;2023-03-14T11:08:32;5.78;;;3.00;;
74543;SDS011;63016;55.030;38.710;2023-03-14T11:11:14;4.97;;;3.08;;
74543;SDS011;63016;55.030;38.710;2023-03-14T11:13:51;5.45;;;2.83;;
74543;SDS011;63016;55.030;38.710;2023-03-14T11:16:37;5.68;;;2.60;;
74543;SDS011;63016;55.030;38.710;2023-03-14T11:30:53;5.35;;;2.78;;
74543;SDS011;63016;55.030;38.710;2023-03-14T11:33:22;5.43;;;2.92;;
74543;SDS011;63016;55.030;38.710;2023-03-14T11:35:55;5.45;;;2.92;;
74543;SDS011;63016;55.030;38.710;2023-03-14T11:38:38;5.68;;;2.47;;
74543;SDS011;63016;55.030;38.710;2023-03-14T11:41:22;4.20;;;2.47;;
74543;SDS011;63016;55.030;38.710;2023-03-14T11:44:02;6.05;;;2.60;;
74543;SDS011;63016;55.030;38.710;2023-03-14T11:46:37;6.82;;;2.72;;
74543;SDS011;63016;55.030;38.710;2023-03-14T11:52:11;4.43;;;2.58;;
74543;SDS011;63016;55.030;38.710;2023-03-14T11:55:02;4.95;;;2.72;;
74543;SDS011;63016;55.030;38.710;2023-03-14T11:57:30;5.43;;;2.78;;
74543;SDS011;63016;55.030;38.710;2023-03-14T12:02:26;5.35;;;2.50;;
74543;SDS011;63016;55.030;38.710;2023-03-14T12:13:14;5.30;;;3.17;;
74543;SDS011;63016;55.030;38.710;2023-03-14T12:15:46;5.85;;;2.95;;
74543;SDS011;63016;55.030;38.710;2023-03-14T12:18:19;4.85;;;3.08;;
74543;SDS011;63016;55.030;38.710;2023-03-14T12:20:50;6.13;;;2.97;;
74543;SDS011;63016;55.030;38.710;2023-03-14T12:23:21;4.82;;;2.80;;
74543;SDS011;63016;55.030;38.710;2023-03-14T12:26:05;6.25;;;3.05;;
74543;SDS011;63016;55.030;38.710;2023-03-14T12:28:38;5.40;;;3.45;;
74543;SDS011;63016;55.030;38.710;2023-03-14T12:39:13;7.47;;;2.72;;
74543;SDS011;63016;55.030;38.710;2023-03-14T12:42:02;4.70;;;2.65;;
74543;SDS011;63016;55.030;38.710;2023-03-14T12:49:45;5.07;;;3.13;;
74543;SDS011;63016;55.030;38.710;2023-03-14T12:54:51;6.88;;;3.08;;
74543;SDS011;63016;55.030;38.710;2023-03-14T12:57:33;6.80;;;2.80;;
74543;SDS011;63016;55.030;38.710;2023-03-14T13:03:02;4.60;;;2.50;;
74543;SDS011;63016;55.030;38.710;2023-03-14T13:05:54;5.93;;;2.88;;
74543;SDS011;63016;55.030;38.710;2023-03-14T13:08:45;4.78;;;2.75;;
74543;SDS011;63016;55.030;38.710;2023-03-14T13:13:41;4.15;;;2.50;;
74543;SDS011;63016;55.030;38.710;2023-03-14T13:16:13;6.03;;;2.70;;
74543;SDS011;63016;55.030;38.710;2023-03-14T13:19:09;6.57;;;2.60;;
74543;SDS011;63016;55.030;38.710;2023-03-14T13:21:36;6.43;;;2.60;;
74543;SDS011;63016;55.030;38.710;2023-03-14T13:24:03;5.47;;;2.65;;
74543;SDS011;63016;55.030;38.710;2023-03-14T13:26:32;6.25;;;2.50;;
74543;SDS011;63016;55.030;38.710;2023-03-14T13:29:11;4.60;;;2.17;;
74543;SDS011;63016;55.030;38.710;2023-03-14T13:31:45;6.22;;;2.63;;
74543;SDS011;63016;55.030;38.710;2023-03-14T13:34:12;5.25;;;2.90;;
74543;SDS011;63016;55.030;38.710;2023-03-14T13:36:38;6.82;;;2.72;;
74543;SDS011;63016;55.030;38.710;2023-03-14T13:39:04;6.95;;;2.58;;
74543;SDS011;63016;55.030;38.710;2023-03-14T13:41:45;5.82;;;2.72;;
74543;SDS011;63016;55.030;38.710;2023-03-14T13:44:19;4.05;;;2.33;;
74543;SDS011;63016;55.030;38.710;2023-03-14T13:46:56;5.45;;;2.38;;
74543;SDS011;63016;55.030;38.710;2023-03-14T13:49:26;5.38;;;2.53;;
74543;SDS011;63016;55.030;38.710;2023-03-14T13:51:54;6.15;;;2.55;;
74543;SDS011;63016;55.030;38.710;2023-03-14T13:54:20;5.47;;;2.00;;
74543;SDS011;63016;55.030;38.710;2023-03-14T13:56:47;5.80;;;2.38;;
74543;SDS011;63016;55.030;38.710;2023-03-14T13:59:23;4.20;;;2.40;;
74543;SDS011;63016;55.030;38.710;2023-03-14T14:01:53;3.85;;;1.98;;
74543;SDS011;63016;55.030;38.710;2023-03-14T14:04:20;3.97;;;1.92;;
74543;SDS011;63016;55.030;38.710;2023-03-14T14:14:28;5.87;;;2.33;;
74543;SDS011;63016;55.030;38.710;2023-03-14T14:17:00;4.72;;;2.10;;
74543;SDS011;63016;55.030;38.710;2023-03-14T14:19:29;4.85;;;2.10;;
74543;SDS011;63016;55.030;38.710;2023-03-14T14:21:56;5.22;;;1.90;;
74543;SDS011;63016;55.030;38.710;2023-03-14T14:24:23;3.90;;;1.92;;
74543;SDS011;63016;55.030;38.710;2023-03-14T14:26:55;5.88;;;1.83;;
74543;SDS011;63016;55.030;38.710;2023-03-14T14:29:27;4.00;;;1.75;;
74543;SDS011;63016;55.030;38.710;2023-03-14T14:34:39;4.20;;;1.67;;
74543;SDS011;63016;55.030;38.710;2023-03-14T14:37:21;4.43;;;1.73;;
74543;SDS011;63016;55.030;38.710;2023-03-14T14:39:49;3.75;;;1.70;;
74543;SDS011;63016;55.030;38.710;2023-03-14T14:42:18;4.70;;;1.60;;
74543;SDS011;63016;55.030;38.710;2023-03-14T14:44:47;6.28;;;2.00;;
74543;SDS011;63016;55.030;38.710;2023-03-14T14:47:17;5.32;;;2.03;;
74543;SDS011;63016;55.030;38.710;2023-03-14T14:49:46;4.03;;;1.83;;
74543;SDS011;63016;55.030;38.710;2023-03-14T14:57:21;3.88;;;1.42;;
74543;SDS011;63016;55.030;38.710;2023-03-14T14:59:49;6.30;;;1.38;;
74543;SDS011;63016;55.030;38.710;2023-03-14T15:02:37;5.45;;;1.40;;
74543;SDS011;63016;55.030;38.710;2023-03-14T15:05:16;3.63;;;1.17;;
74543;SDS011;63016;55.030;38.710;2023-03-14T15:07:44;3.80;;;1.25;;
74543;SDS011;63016;55.030;38.710;2023-03-14T15:10:14;2.50;;;1.30;;
74543;SDS011;63016;55.030;38.710;2023-03-14T15:12:41;2.42;;;1.38;;
74543;SDS011;63016;55.030;38.710;2023-03-14T15:15:07;3.13;;;1.30;;
74543;SDS011;63016;55.030;38.710;2023-03-14T15:17:34;3.83;;;1.48;;
74543;SDS011;63016;55.030;38.710;2023-03-14T15:20:01;2.17;;;1.30;;
74543;SDS011;63016;55.030;38.710;2023-03-14T15:22:29;2.60;;;1.05;;
74543;SDS011;63016;55.030;38.710;2023-03-14T15:24:55;2.42;;;1.25;;
74543;SDS011;63016;55.030;38.710;2023-03-14T15:27:21;2.33;;;1.00;;
74543;SDS011;63016;55.030;38.710;2023-03-14T15:29:47;3.75;;;1.33;;
74543;SDS011;63016;55.030;38.710;2023-03-14T15:32:13;3.47;;;1.20;;
74543;SDS011;63016;55.030;38.710;2023-03-14T15:34:40;3.65;;;1.25;;
74543;SDS011;63016;55.030;38.710;2023-03-14T15:37:10;2.75;;;1.20;;
74543;SDS011;63016;55.030;38.710;2023-03-14T15:39:37;2.70;;;1.20;;
74543;SDS011;63016;55.030;38.710;2023-03-14T15:42:03;3.97;;;1.52;;
74543;SDS011;63016;55.030;38.710;2023-03-14T15:44:29;2.30;;;1.15;;
74543;SDS011;63016;55.030;38.710;2023-03-14T15:46:54;6.55;;;1.75;;
74543;SDS011;63016;55.030;38.710;2023-03-14T15:49:20;2.38;;;1.20;;
74543;SDS011;63016;55.030;38.710;2023-03-14T15:51:45;3.60;;;1.30;;
74543;SDS011;63016;55.030;38.710;2023-03-14T15:54:11;2.45;;;1.20;;
74543;SDS011;63016;55.030;38.710;2023-03-14T15:56:36;4.93;;;1.35;;
74543;SDS011;63016;55.030;38.710;2023-03-14T15:59:02;5.22;;;1.13;;
74543;SDS011;63016;55.030;38.710;2023-03-14T16:01:27;2.03;;;0.93;;
74543;SDS011;63016;55.030;38.710;2023-03-14T16:03:53;5.03;;;1.15;;
74543;SDS011;63016;55.030;38.710;2023-03-14T16:06:19;3.03;;;1.08;;
74543;SDS011;63016;55.030;38.710;2023-03-14T16:08:45;3.70;;;1.23;;
74543;SDS011;63016;55.030;38.710;2023-03-14T16:11:11;2.53;;;1.23;;
74543;SDS011;63016;55.030;38.710;2023-03-14T16:13:39;3.00;;;1.13;;
74543;SDS011;63016;55.030;38.710;2023-03-14T16:16:06;2.83;;;1.17;;
74543;SDS011;63016;55.030;38.710;2023-03-14T16:18:33;3.45;;;1.20;;